sensor_id;sensor_type;location;lat;lon;timestamp;P1;durP1;ratioP1;P2;durP2;ratioP2
7203;SDS011;3643;52.460;13.322;2023-04-25T00:00:00;5.07;;;2.73;;
7203;SDS011;3643;52.460;13.322;2023-04-25T00:02:31;3.30;;;2.20;;
7203;SDS011;3643;52.460;13.322;2023-04-25T00:05:01;5.50;;;2.20;;
7203;SDS011;3643;52.460;13.322;2023-04-25T00:07:31;3.23;;;2.40;;
7203;SDS011;3643;52.460;13.322;2023-04-25T00:10:00;4.60;;;2.17;;
7203;SDS011;3643;52.460;13.322;2023-04-25T00:12:29;4.83;;;2.30;;
7203;SDS011;3643;52.460;13.322;2023-04-25T00:14:57;3.00;;;1.90;;
7203;SDS011;3643;52.460;13.322;2023-04-25T00:17:26;2.87;;;2.20;;
7203;SDS011;3643;52.460;13.322;2023-04-25T00:19:56;4.90;;;2.33;;
7203;SDS011;3643;52.460;13.322;2023-04-25T00:22:25;3.63;;;2.47;;
7203;SDS011;3643;52.460;13.322;2023-04-25T00:24:54;3.63;;;2.47;;
7203;SDS011;3643;52.460;13.322;2023-04-25T00:27:23;4.40;;;2.20;;
7203;SDS011;3643;52.460;13.322;2023-04-25T00:29:52;5.23;;;2.40;;
7203;SDS011;3643;52.460;13.322;2023-04-25T00:32:21;5.40;;;2.67;;
7203;SDS011;3643;52.460;13.322;2023-04-25T00:34:49;3.90;;;2.40;;
7203;SDS011;3643;52.460;13.322;2023-04-25T00:37:19;5.70;;;2.47;;
7203;SDS011;3643;52.460;13.322;2023-04-25T00:39:48;6.27;;;2.63;;
7203;SDS011;3643;52.460;13.322;2023-04-25T00:42:16;5.63;;;2.43;;
7203;SDS011;3643;52.460;13.322;2023-04-25T00:44:45;4.83;;;2.70;;
7203;SDS011;3643;52.460;13.322;2023-04-25T00:47:15;7.70;;;2.97;;
7203;SDS011;3643;52.460;13.322;2023-04-25T00:49:44;4.63;;;2.63;;
7203;SDS011;3643;52.460;13.322;2023-04-25T00:52:12;5.03;;;2.80;;
7203;SDS011;3643;52.460;13.322;2023-04-25T00:54:42;3.63;;;2.47;;
7203;SDS011;3643;52.460;13.322;2023-04-25T00:57:11;5.00;;;2.70;;
7203;SDS011;3643;52.460;13.322;2023-04-25T00:59:40;3.73;;;2.40;;
7203;SDS011;3643;52.460;13.322;2023-04-25T01:02:12;5.33;;;2.90;;
7203;SDS011;3643;52.460;13.322;2023-04-25T01:04:41;6.73;;;2.70;;
7203;SDS011;3643;52.460;13.322;2023-04-25T01:07:10;5.63;;;2.87;;
7203;SDS011;3643;52.460;13.322;2023-04-25T01:09:38;6.87;;;2.90;;
7203;SDS011;3643;52.460;13.322;2023-04-25T01:12:09;6.70;;;2.90;;
7203;SDS011;3643;52.460;13.322;2023-04-25T01:14:38;5.60;;;2.73;;
7203;SDS011;3643;52.460;13.322;2023-04-25T01:17:07;7.63;;;3.37;;
7203;SDS011;3643;52.460;13.322;2023-04-25T01:19:37;6.47;;;3.17;;
7203;SDS011;3643;52.460;13.322;2023-04-25T01:22:07;10.23;;;3.03;;
7203;SDS011;3643;52.460;13.322;2023-04-25T01:24:37;4.90;;;2.87;;
7203;SDS011;3643;52.460;13.322;2023-04-25T01:27:05;9.17;;;3.47;;
7203;SDS011;3643;52.460;13.322;2023-04-25T01:29:35;4.47;;;2.87;;
7203;SDS011;3643;52.460;13.322;2023-04-25T01:32:04;7.87;;;3.10;;
7203;SDS011;3643;52.460;13.322;2023-04-25T01:34:33;6.17;;;2.93;;
7203;SDS011;3643;52.460;13.322;2023-04-25T01:37:02;5.53;;;3.00;;
7203;SDS011;3643;52.460;13.322;2023-04-25T01:39:32;3.60;;;2.50;;
7203;SDS011;3643;52.460;13.322;2023-04-25T01:42:01;5.83;;;3.20;;
7203;SDS011;3643;52.460;13.322;2023-04-25T01:44:30;6.90;;;3.17;;
7203;SDS011;3643;52.460;13.322;2023-04-25T01:46:59;5.63;;;3.00;;
7203;SDS011;3643;52.460;13.322;2023-04-25T01:49:27;6.60;;;3.10;;
7203;SDS011;3643;52.460;13.322;2023-04-25T01:51:55;7.47;;;3.40;;
7203;SDS011;3643;52.460;13.322;2023-04-25T01:54:24;6.50;;;2.97;;
7203;SDS011;3643;52.460;13.322;2023-04-25T01:56:54;6.43;;;3.03;;
7203;SDS011;3643;52.460;13.322;2023-04-25T01:59:25;8.03;;;3.17;;
7203;SDS011;3643;52.460;13.322;2023-04-25T02:01:53;9.23;;;3.67;;
7203;SDS011;3643;52.460;13.322;2023-04-25T02:04:22;5.30;;;3.00;;
7203;SDS011;3643;52.460;13.322;2023-04-25T02:06:50;6.23;;;3.17;;
7203;SDS011;3643;52.460;13.322;2023-04-25T02:09:20;8.27;;;3.40;;
7203;SDS011;3643;52.460;13.322;2023-04-25T02:11:48;7.27;;;3.00;;
7203;SDS011;3643;52.460;13.322;2023-04-25T02:14:19;8.60;;;3.27;;
7203;SDS011;3643;52.460;13.322;2023-04-25T02:16:48;4.70;;;3.07;;
7203;SDS011;3643;52.460;13.322;2023-04-25T02:19:18;4.73;;;2.93;;
7203;SDS011;3643;52.460;13.322;2023-04-25T02:21:46;7.63;;;3.20;;
7203;SDS011;3643;52.460;13.322;2023-04-25T02:24:15;8.43;;;4.00;;
7203;SDS011;3643;52.460;13.322;2023-04-25T02:26:43;5.47;;;3.30;;
7203;SDS011;3643;52.460;13.322;2023-04-25T02:29:13;6.80;;;4.17;;
7203;SDS011;3643;52.460;13.322;2023-04-25T02:31:43;7.60;;;3.60;;
7203;SDS011;3643;52.460;13.322;2023-04-25T02:34:12;8.13;;;3.83;;
7203;SDS011;3643;52.460;13.322;2023-04-25T02:36:40;8.77;;;3.63;;
7203;SDS011;3643;52.460;13.322;2023-04-25T02:39:09;6.30;;;3.27;;
7203;SDS011;3643;52.460;13.322;2023-04-25T02:41:38;4.70;;;3.43;;
7203;SDS011;3643;52.460;13.322;2023-04-25T02:44:06;8.90;;;3.73;;
7203;SDS011;3643;52.460;13.322;2023-04-25T02:46:34;8.10;;;3.53;;
7203;SDS011;3643;52.460;13.322;2023-04-25T02:49:07;8.37;;;3.30;;
7203;SDS011;3643;52.460;13.322;2023-04-25T02:51:36;6.73;;;3.63;;
7203;SDS011;3643;52.460;13.322;2023-04-25T02:54:04;9.93;;;4.30;;
7203;SDS011;3643;52.460;13.322;2023-04-25T02:56:33;7.77;;;3.70;;
7203;SDS011;3643;52.460;13.322;2023-04-25T02:59:02;7.77;;;3.40;;
7203;SDS011;3643;52.460;13.322;2023-04-25T03:01:30;8.00;;;3.87;;
7203;SDS011;3643;52.460;13.322;2023-04-25T03:03:59;8.13;;;4.03;;
7203;SDS011;3643;52.460;13.322;2023-04-25T03:06:29;6.27;;;4.23;;
7203;SDS011;3643;52.460;13.322;2023-04-25T03:08:58;4.50;;;3.63;;
7203;SDS011;3643;52.460;13.322;2023-04-25T03:11:26;9.80;;;4.47;;
7203;SDS011;3643;52.460;13.322;2023-04-25T03:13:55;8.33;;;3.63;;
7203;SDS011;3643;52.460;13.322;2023-04-25T03:16:24;11.13;;;4.53;;
7203;SDS011;3643;52.460;13.322;2023-04-25T03:18:53;8.90;;;4.17;;
7203;SDS011;3643;52.460;13.322;2023-04-25T03:21:22;7.20;;;4.03;;
7203;SDS011;3643;52.460;13.322;2023-04-25T03:23:52;8.73;;;3.60;;
7203;SDS011;3643;52.460;13.322;2023-04-25T03:26:20;7.97;;;4.13;;
7203;SDS011;3643;52.460;13.322;2023-04-25T03:28:49;8.27;;;3.77;;
7203;SDS011;3643;52.460;13.322;2023-04-25T03:31:17;6.60;;;4.17;;
7203;SDS011;3643;52.460;13.322;2023-04-25T03:33:47;4.90;;;3.53;;
7203;SDS011;3643;52.460;13.322;2023-04-25T03:36:16;11.43;;;4.17;;
7203;SDS011;3643;52.460;13.322;2023-04-25T03:38:45;6.10;;;3.90;;
7203;SDS011;3643;52.460;13.322;2023-04-25T03:41:16;9.23;;;4.00;;
7203;SDS011;3643;52.460;13.322;2023-04-25T03:43:44;7.63;;;3.63;;
7203;SDS011;3643;52.460;13.322;2023-04-25T03:46:13;6.73;;;4.07;;
7203;SDS011;3643;52.460;13.322;2023-04-25T03:48:42;6.57;;;3.77;;
7203;SDS011;3643;52.460;13.322;2023-04-25T03:51:10;7.90;;;4.70;;
7203;SDS011;3643;52.460;13.322;2023-04-25T03:53:39;7.37;;;3.70;;
7203;SDS011;3643;52.460;13.322;2023-04-25T03:56:08;7.17;;;3.80;;
7203;SDS011;3643;52.460;13.322;2023-04-25T03:58:38;7.93;;;3.90;;
7203;SDS011;3643;52.460;13.322;2023-04-25T04:01:06;9.00;;;4.20;;
7203;SDS011;3643;52.460;13.322;2023-04-25T04:03:35;7.60;;;4.20;;
7203;SDS011;3643;52.460;13.322;2023-04-25T04:06:04;6.87;;;4.03;;
7203;SDS011;3643;52.460;13.322;2023-04-25T04:08:33;10.27;;;4.60;;
7203;SDS011;3643;52.460;13.322;2023-04-25T04:11:02;10.23;;;4.57;;
7203;SDS011;3643;52.460;13.322;2023-04-25T04:13:30;6.77;;;4.20;;
7203;SDS011;3643;52.460;13.322;2023-04-25T04:16:00;9.50;;;4.23;;
7203;SDS011;3643;52.460;13.322;2023-04-25T04:18:29;6.77;;;4.00;;
7203;SDS011;3643;52.460;13.322;2023-04-25T04:20:59;6.23;;;3.77;;
7203;SDS011;3643;52.460;13.322;2023-04-25T04:23:27;6.30;;;3.80;;
7203;SDS011;3643;52.460;13.322;2023-04-25T04:25:56;6.63;;;3.67;;
7203;SDS011;3643;52.460;13.322;2023-04-25T04:28:24;8.83;;;4.47;;
7203;SDS011;3643;52.460;13.322;2023-04-25T04:30:52;7.33;;;3.97;;
7203;SDS011;3643;52.460;13.322;2023-04-25T04:33:23;7.27;;;4.10;;
7203;SDS011;3643;52.460;13.322;2023-04-25T04:35:52;8.70;;;4.00;;
7203;SDS011;3643;52.460;13.322;2023-04-25T04:38:22;8.33;;;3.77;;
7203;SDS011;3643;52.460;13.322;2023-04-25T04:40:50;8.23;;;4.30;;
7203;SDS011;3643;52.460;13.322;2023-04-25T04:43:18;9.03;;;4.30;;
7203;SDS011;3643;52.460;13.322;2023-04-25T04:45:47;7.70;;;3.53;;
7203;SDS011;3643;52.460;13.322;2023-04-25T04:48:16;6.40;;;3.97;;
7203;SDS011;3643;52.460;13.322;2023-04-25T04:50:46;6.33;;;3.60;;
7203;SDS011;3643;52.460;13.322;2023-04-25T04:53:14;7.43;;;4.20;;
7203;SDS011;3643;52.460;13.322;2023-04-25T04:55:42;6.70;;;3.97;;
7203;SDS011;3643;52.460;13.322;2023-04-25T04:58:11;7.37;;;3.90;;
7203;SDS011;3643;52.460;13.322;2023-04-25T05:00:39;8.00;;;3.87;;
7203;SDS011;3643;52.460;13.322;2023-04-25T05:03:07;8.07;;;3.90;;
7203;SDS011;3643;52.460;13.322;2023-04-25T05:05:38;7.77;;;4.00;;
7203;SDS011;3643;52.460;13.322;2023-04-25T05:08:07;10.80;;;3.70;;
7203;SDS011;3643;52.460;13.322;2023-04-25T05:10:36;9.53;;;4.03;;
7203;SDS011;3643;52.460;13.322;2023-04-25T05:13:04;10.93;;;4.50;;
7203;SDS011;3643;52.460;13.322;2023-04-25T05:15:32;7.70;;;3.77;;
7203;SDS011;3643;52.460;13.322;2023-04-25T05:18:01;10.23;;;4.50;;
7203;SDS011;3643;52.460;13.322;2023-04-25T05:20:30;6.73;;;4.37;;
7203;SDS011;3643;52.460;13.322;2023-04-25T05:22:58;7.47;;;4.33;;
7203;SDS011;3643;52.460;13.322;2023-04-25T05:25:28;8.97;;;4.03;;
7203;SDS011;3643;52.460;13.322;2023-04-25T05:27:57;12.03;;;4.03;;
7203;SDS011;3643;52.460;13.322;2023-04-25T05:30:25;9.20;;;3.80;;
7203;SDS011;3643;52.460;13.322;2023-04-25T05:32:53;5.10;;;3.43;;
7203;SDS011;3643;52.460;13.322;2023-04-25T05:35:22;6.43;;;3.87;;
7203;SDS011;3643;52.460;13.322;2023-04-25T05:37:50;9.30;;;4.37;;
7203;SDS011;3643;52.460;13.322;2023-04-25T05:40:19;10.03;;;3.93;;
7203;SDS011;3643;52.460;13.322;2023-04-25T05:42:48;6.53;;;3.90;;
7203;SDS011;3643;52.460;13.322;2023-04-25T05:45:17;6.30;;;3.83;;
7203;SDS011;3643;52.460;13.322;2023-04-25T05:47:45;5.30;;;4.00;;
7203;SDS011;3643;52.460;13.322;2023-04-25T05:50:13;9.17;;;5.10;;
7203;SDS011;3643;52.460;13.322;2023-04-25T05:52:42;9.53;;;4.00;;
7203;SDS011;3643;52.460;13.322;2023-04-25T05:55:10;8.37;;;4.47;;
7203;SDS011;3643;52.460;13.322;2023-04-25T05:57:39;8.80;;;4.40;;
7203;SDS011;3643;52.460;13.322;2023-04-25T06:00:13;10.17;;;4.73;;
7203;SDS011;3643;52.460;13.322;2023-04-25T06:02:42;10.37;;;4.93;;
7203;SDS011;3643;52.460;13.322;2023-04-25T06:05:11;11.80;;;4.80;;
7203;SDS011;3643;52.460;13.322;2023-04-25T06:07:39;10.40;;;4.57;;
7203;SDS011;3643;52.460;13.322;2023-04-25T06:10:08;9.50;;;4.60;;
7203;SDS011;3643;52.460;13.322;2023-04-25T06:12:37;11.00;;;5.20;;
7203;SDS011;3643;52.460;13.322;2023-04-25T06:15:06;9.63;;;4.93;;
7203;SDS011;3643;52.460;13.322;2023-04-25T06:17:55;9.67;;;4.73;;
7203;SDS011;3643;52.460;13.322;2023-04-25T06:20:23;8.67;;;4.93;;
7203;SDS011;3643;52.460;13.322;2023-04-25T06:22:52;8.40;;;4.60;;
7203;SDS011;3643;52.460;13.322;2023-04-25T06:25:20;8.67;;;4.60;;
7203;SDS011;3643;52.460;13.322;2023-04-25T06:27:48;7.87;;;4.73;;
7203;SDS011;3643;52.460;13.322;2023-04-25T06:30:17;8.70;;;4.70;;
7203;SDS011;3643;52.460;13.322;2023-04-25T06:32:48;10.80;;;4.80;;
7203;SDS011;3643;52.460;13.322;2023-04-25T06:35:18;10.90;;;4.53;;
7203;SDS011;3643;52.460;13.322;2023-04-25T06:37:47;9.77;;;4.60;;
7203;SDS011;3643;52.460;13.322;2023-04-25T06:40:15;9.97;;;4.53;;
7203;SDS011;3643;52.460;13.322;2023-04-25T06:42:44;8.67;;;4.57;;
7203;SDS011;3643;52.460;13.322;2023-04-25T06:45:13;10.20;;;4.60;;
7203;SDS011;3643;52.460;13.322;2023-04-25T06:47:41;7.40;;;4.40;;
7203;SDS011;3643;52.460;13.322;2023-04-25T06:50:10;6.17;;;4.03;;
7203;SDS011;3643;52.460;13.322;2023-04-25T06:52:39;8.07;;;4.20;;
7203;SDS011;3643;52.460;13.322;2023-04-25T06:55:08;7.93;;;4.03;;
7203;SDS011;3643;52.460;13.322;2023-04-25T06:57:37;9.40;;;4.07;;
7203;SDS011;3643;52.460;13.322;2023-04-25T07:00:06;10.87;;;4.27;;
7203;SDS011;3643;52.460;13.322;2023-04-25T07:02:35;6.53;;;4.17;;
7203;SDS011;3643;52.460;13.322;2023-04-25T07:05:04;5.90;;;3.43;;
7203;SDS011;3643;52.460;13.322;2023-04-25T07:07:33;4.37;;;3.43;;
7203;SDS011;3643;52.460;13.322;2023-04-25T07:10:03;7.17;;;3.63;;
7203;SDS011;3643;52.460;13.322;2023-04-25T07:12:32;6.47;;;3.63;;
7203;SDS011;3643;52.460;13.322;2023-04-25T07:15:01;9.20;;;4.07;;
7203;SDS011;3643;52.460;13.322;2023-04-25T07:17:32;8.50;;;3.40;;
7203;SDS011;3643;52.460;13.322;2023-04-25T07:20:01;5.93;;;3.43;;
7203;SDS011;3643;52.460;13.322;2023-04-25T07:22:32;4.80;;;3.43;;
7203;SDS011;3643;52.460;13.322;2023-04-25T07:25:00;7.77;;;4.27;;
7203;SDS011;3643;52.460;13.322;2023-04-25T07:27:31;9.13;;;4.17;;
7203;SDS011;3643;52.460;13.322;2023-04-25T07:30:00;7.00;;;3.80;;
7203;SDS011;3643;52.460;13.322;2023-04-25T07:32:30;11.23;;;4.20;;
7203;SDS011;3643;52.460;13.322;2023-04-25T07:34:58;8.00;;;3.60;;
7203;SDS011;3643;52.460;13.322;2023-04-25T07:37:28;11.20;;;4.20;;
7203;SDS011;3643;52.460;13.322;2023-04-25T07:39:56;9.53;;;4.03;;
7203;SDS011;3643;52.460;13.322;2023-04-25T07:42:26;15.70;;;4.30;;
7203;SDS011;3643;52.460;13.322;2023-04-25T07:44:54;8.63;;;3.53;;
7203;SDS011;3643;52.460;13.322;2023-04-25T07:47:22;8.37;;;4.00;;
7203;SDS011;3643;52.460;13.322;2023-04-25T07:49:51;8.23;;;4.07;;
7203;SDS011;3643;52.460;13.322;2023-04-25T07:52:20;10.73;;;3.50;;
7203;SDS011;3643;52.460;13.322;2023-04-25T07:54:49;13.10;;;3.40;;
7203;SDS011;3643;52.460;13.322;2023-04-25T07:57:17;9.30;;;3.50;;
7203;SDS011;3643;52.460;13.322;2023-04-25T07:59:48;10.07;;;3.93;;
7203;SDS011;3643;52.460;13.322;2023-04-25T08:02:17;11.37;;;4.37;;
7203;SDS011;3643;52.460;13.322;2023-04-25T08:04:46;10.30;;;3.97;;
7203;SDS011;3643;52.460;13.322;2023-04-25T08:07:16;14.40;;;4.27;;
7203;SDS011;3643;52.460;13.322;2023-04-25T08:09:45;12.13;;;3.67;;
7203;SDS011;3643;52.460;13.322;2023-04-25T08:12:14;13.10;;;3.70;;
7203;SDS011;3643;52.460;13.322;2023-04-25T08:14:42;10.83;;;4.13;;
7203;SDS011;3643;52.460;13.322;2023-04-25T08:17:13;11.40;;;4.00;;
7203;SDS011;3643;52.460;13.322;2023-04-25T08:19:42;12.33;;;3.93;;
7203;SDS011;3643;52.460;13.322;2023-04-25T08:22:11;12.53;;;3.73;;
7203;SDS011;3643;52.460;13.322;2023-04-25T08:24:40;15.43;;;3.67;;
7203;SDS011;3643;52.460;13.322;2023-04-25T08:27:09;12.63;;;3.80;;
7203;SDS011;3643;52.460;13.322;2023-04-25T08:29:38;16.17;;;3.60;;
7203;SDS011;3643;52.460;13.322;2023-04-25T08:32:07;10.23;;;3.03;;
7203;SDS011;3643;52.460;13.322;2023-04-25T08:34:37;10.57;;;3.50;;
7203;SDS011;3643;52.460;13.322;2023-04-25T08:37:08;15.27;;;3.73;;
7203;SDS011;3643;52.460;13.322;2023-04-25T08:39:37;15.07;;;3.57;;
7203;SDS011;3643;52.460;13.322;2023-04-25T08:42:06;9.33;;;3.03;;
7203;SDS011;3643;52.460;13.322;2023-04-25T08:44:35;10.20;;;4.07;;
7203;SDS011;3643;52.460;13.322;2023-04-25T08:47:04;7.87;;;3.37;;
7203;SDS011;3643;52.460;13.322;2023-04-25T08:49:33;15.30;;;4.63;;
7203;SDS011;3643;52.460;13.322;2023-04-25T08:52:04;15.27;;;6.37;;
7203;SDS011;3643;52.460;13.322;2023-04-25T08:54:37;17.00;;;5.60;;
7203;SDS011;3643;52.460;13.322;2023-04-25T08:57:11;12.83;;;4.87;;
7203;SDS011;3643;52.460;13.322;2023-04-25T08:59:42;12.37;;;3.07;;
7203;SDS011;3643;52.460;13.322;2023-04-25T09:02:12;13.80;;;3.20;;
7203;SDS011;3643;52.460;13.322;2023-04-25T09:04:43;12.33;;;3.23;;
7203;SDS011;3643;52.460;13.322;2023-04-25T09:07:14;18.57;;;3.10;;
7203;SDS011;3643;52.460;13.322;2023-04-25T09:09:45;12.87;;;3.17;;
7203;SDS011;3643;52.460;13.322;2023-04-25T09:12:14;10.93;;;3.47;;
7203;SDS011;3643;52.460;13.322;2023-04-25T09:14:42;9.50;;;2.90;;
7203;SDS011;3643;52.460;13.322;2023-04-25T09:17:31;7.77;;;2.40;;
7203;SDS011;3643;52.460;13.322;2023-04-25T09:20:06;10.77;;;3.13;;
7203;SDS011;3643;52.460;13.322;2023-04-25T09:22:37;11.97;;;3.07;;
7203;SDS011;3643;52.460;13.322;2023-04-25T09:25:09;11.10;;;3.20;;
7203;SDS011;3643;52.460;13.322;2023-04-25T09:27:48;13.83;;;2.73;;
7203;SDS011;3643;52.460;13.322;2023-04-25T09:30:18;10.33;;;2.73;;
7203;SDS011;3643;52.460;13.322;2023-04-25T09:32:56;12.13;;;2.60;;
7203;SDS011;3643;52.460;13.322;2023-04-25T09:35:25;11.43;;;3.13;;
7203;SDS011;3643;52.460;13.322;2023-04-25T09:37:55;12.47;;;3.13;;
7203;SDS011;3643;52.460;13.322;2023-04-25T09:40:23;11.63;;;3.03;;
7203;SDS011;3643;52.460;13.322;2023-04-25T09:42:52;12.00;;;3.53;;
7203;SDS011;3643;52.460;13.322;2023-04-25T09:45:21;11.37;;;3.70;;
7203;SDS011;3643;52.460;13.322;2023-04-25T09:47:49;13.90;;;3.43;;
7203;SDS011;3643;52.460;13.322;2023-04-25T09:50:17;10.27;;;2.90;;
7203;SDS011;3643;52.460;13.322;2023-04-25T09:52:46;11.10;;;3.07;;
7203;SDS011;3643;52.460;13.322;2023-04-25T09:55:32;7.73;;;2.57;;
7203;SDS011;3643;52.460;13.322;2023-04-25T09:58:04;11.10;;;3.00;;
7203;SDS011;3643;52.460;13.322;2023-04-25T10:00:34;10.57;;;3.50;;
7203;SDS011;3643;52.460;13.322;2023-04-25T10:03:02;11.73;;;2.43;;
7203;SDS011;3643;52.460;13.322;2023-04-25T10:05:33;7.47;;;2.53;;
7203;SDS011;3643;52.460;13.322;2023-04-25T10:08:05;7.97;;;3.00;;
7203;SDS011;3643;52.460;13.322;2023-04-25T10:10:35;6.00;;;2.47;;
7203;SDS011;3643;52.460;13.322;2023-04-25T10:13:04;7.37;;;2.70;;
7203;SDS011;3643;52.460;13.322;2023-04-25T10:15:34;11.00;;;3.00;;
7203;SDS011;3643;52.460;13.322;2023-04-25T10:18:06;7.43;;;2.60;;
7203;SDS011;3643;52.460;13.322;2023-04-25T10:20:35;7.93;;;2.60;;
7203;SDS011;3643;52.460;13.322;2023-04-25T10:23:06;7.53;;;2.43;;
7203;SDS011;3643;52.460;13.322;2023-04-25T10:25:39;9.80;;;2.60;;
7203;SDS011;3643;52.460;13.322;2023-04-25T10:28:09;9.87;;;2.37;;
7203;SDS011;3643;52.460;13.322;2023-04-25T10:30:37;6.60;;;2.20;;
7203;SDS011;3643;52.460;13.322;2023-04-25T10:33:29;6.50;;;2.30;;
7203;SDS011;3643;52.460;13.322;2023-04-25T10:36:08;7.40;;;2.63;;
7203;SDS011;3643;52.460;13.322;2023-04-25T10:38:43;9.37;;;2.97;;
7203;SDS011;3643;52.460;13.322;2023-04-25T10:41:12;8.10;;;2.77;;
7203;SDS011;3643;52.460;13.322;2023-04-25T10:43:41;8.17;;;2.93;;
7203;SDS011;3643;52.460;13.322;2023-04-25T10:46:14;7.17;;;2.70;;
7203;SDS011;3643;52.460;13.322;2023-04-25T10:48:45;12.03;;;2.93;;
7203;SDS011;3643;52.460;13.322;2023-04-25T10:51:16;3.77;;;2.43;;
7203;SDS011;3643;52.460;13.322;2023-04-25T10:53:56;13.80;;;2.97;;
7203;SDS011;3643;52.460;13.322;2023-04-25T10:56:26;7.37;;;2.53;;
7203;SDS011;3643;52.460;13.322;2023-04-25T10:59:05;6.23;;;2.60;;
7203;SDS011;3643;52.460;13.322;2023-04-25T11:01:39;7.00;;;2.53;;
7203;SDS011;3643;52.460;13.322;2023-04-25T11:04:21;5.07;;;2.30;;
7203;SDS011;3643;52.460;13.322;2023-04-25T11:06:54;9.13;;;2.90;;
7203;SDS011;3643;52.460;13.322;2023-04-25T11:09:35;6.47;;;2.73;;
7203;SDS011;3643;52.460;13.322;2023-04-25T11:12:07;6.67;;;2.47;;
7203;SDS011;3643;52.460;13.322;2023-04-25T11:14:38;10.50;;;2.93;;
7203;SDS011;3643;52.460;13.322;2023-04-25T11:17:06;6.33;;;2.53;;
7203;SDS011;3643;52.460;13.322;2023-04-25T11:19:35;7.70;;;2.53;;
7203;SDS011;3643;52.460;13.322;2023-04-25T11:22:03;8.37;;;2.73;;
7203;SDS011;3643;52.460;13.322;2023-04-25T11:24:35;8.27;;;2.47;;
7203;SDS011;3643;52.460;13.322;2023-04-25T11:27:04;7.97;;;2.40;;
7203;SDS011;3643;52.460;13.322;2023-04-25T11:29:33;8.10;;;2.40;;
7203;SDS011;3643;52.460;13.322;2023-04-25T11:32:02;4.57;;;2.30;;
7203;SDS011;3643;52.460;13.322;2023-04-25T11:34:32;10.40;;;2.03;;
7203;SDS011;3643;52.460;13.322;2023-04-25T11:37:01;3.97;;;1.97;;
7203;SDS011;3643;52.460;13.322;2023-04-25T11:39:30;7.53;;;2.20;;
7203;SDS011;3643;52.460;13.322;2023-04-25T11:42:00;6.73;;;2.30;;
7203;SDS011;3643;52.460;13.322;2023-04-25T11:44:34;4.90;;;1.67;;
7203;SDS011;3643;52.460;13.322;2023-04-25T11:47:02;5.07;;;1.90;;
7203;SDS011;3643;52.460;13.322;2023-04-25T11:49:31;7.07;;;1.97;;
7203;SDS011;3643;52.460;13.322;2023-04-25T11:51:59;6.87;;;2.30;;
7203;SDS011;3643;52.460;13.322;2023-04-25T11:54:28;3.57;;;1.93;;
7203;SDS011;3643;52.460;13.322;2023-04-25T11:56:56;5.33;;;2.33;;
7203;SDS011;3643;52.460;13.322;2023-04-25T11:59:26;5.93;;;2.20;;
7203;SDS011;3643;52.460;13.322;2023-04-25T12:01:55;4.27;;;1.87;;
7203;SDS011;3643;52.460;13.322;2023-04-25T12:04:24;5.53;;;1.90;;
7203;SDS011;3643;52.460;13.322;2023-04-25T12:06:54;7.67;;;2.40;;
7203;SDS011;3643;52.460;13.322;2023-04-25T12:09:27;5.23;;;2.17;;
7203;SDS011;3643;52.460;13.322;2023-04-25T12:11:57;6.07;;;2.13;;
7203;SDS011;3643;52.460;13.322;2023-04-25T12:14:31;4.50;;;2.00;;
7203;SDS011;3643;52.460;13.322;2023-04-25T12:17:01;6.67;;;2.10;;
7203;SDS011;3643;52.460;13.322;2023-04-25T12:19:33;6.33;;;2.13;;
7203;SDS011;3643;52.460;13.322;2023-04-25T12:22:03;6.60;;;2.13;;
7203;SDS011;3643;52.460;13.322;2023-04-25T12:24:45;8.43;;;2.27;;
7203;SDS011;3643;52.460;13.322;2023-04-25T12:27:14;4.67;;;2.00;;
7203;SDS011;3643;52.460;13.322;2023-04-25T12:29:51;6.03;;;2.03;;
7203;SDS011;3643;52.460;13.322;2023-04-25T12:32:21;6.03;;;2.60;;
7203;SDS011;3643;52.460;13.322;2023-04-25T12:34:50;6.73;;;2.13;;
7203;SDS011;3643;52.460;13.322;2023-04-25T12:37:18;6.40;;;2.20;;
7203;SDS011;3643;52.460;13.322;2023-04-25T12:39:47;8.50;;;2.07;;
7203;SDS011;3643;52.460;13.322;2023-04-25T12:42:15;7.93;;;2.60;;
7203;SDS011;3643;52.460;13.322;2023-04-25T12:44:44;4.30;;;2.10;;
7203;SDS011;3643;52.460;13.322;2023-04-25T12:47:14;6.30;;;2.00;;
7203;SDS011;3643;52.460;13.322;2023-04-25T12:49:42;7.33;;;2.23;;
7203;SDS011;3643;52.460;13.322;2023-04-25T12:52:11;4.87;;;2.13;;
7203;SDS011;3643;52.460;13.322;2023-04-25T12:54:39;6.67;;;2.20;;
7203;SDS011;3643;52.460;13.322;2023-04-25T12:57:08;7.43;;;2.57;;
7203;SDS011;3643;52.460;13.322;2023-04-25T12:59:37;8.13;;;2.70;;
7203;SDS011;3643;52.460;13.322;2023-04-25T13:02:06;6.13;;;2.10;;
7203;SDS011;3643;52.460;13.322;2023-04-25T13:04:36;7.23;;;2.30;;
7203;SDS011;3643;52.460;13.322;2023-04-25T13:07:04;4.23;;;2.13;;
7203;SDS011;3643;52.460;13.322;2023-04-25T13:09:33;4.97;;;1.87;;
7203;SDS011;3643;52.460;13.322;2023-04-25T13:12:01;2.63;;;1.50;;
7203;SDS011;3643;52.460;13.322;2023-04-25T13:14:30;2.97;;;1.70;;
7203;SDS011;3643;52.460;13.322;2023-04-25T13:16:59;3.37;;;1.50;;
7203;SDS011;3643;52.460;13.322;2023-04-25T13:19:27;3.87;;;1.70;;
7203;SDS011;3643;52.460;13.322;2023-04-25T13:21:57;4.67;;;1.83;;
7203;SDS011;3643;52.460;13.322;2023-04-25T13:24:26;4.80;;;1.97;;
7203;SDS011;3643;52.460;13.322;2023-04-25T13:26:54;3.93;;;1.57;;
7203;SDS011;3643;52.460;13.322;2023-04-25T13:29:23;4.97;;;1.73;;
7203;SDS011;3643;52.460;13.322;2023-04-25T13:31:51;4.20;;;1.73;;
7203;SDS011;3643;52.460;13.322;2023-04-25T13:34:20;5.43;;;2.03;;
7203;SDS011;3643;52.460;13.322;2023-04-25T13:36:48;7.57;;;2.37;;
7203;SDS011;3643;52.460;13.322;2023-04-25T13:39:18;4.47;;;1.60;;
7203;SDS011;3643;52.460;13.322;2023-04-25T13:41:46;7.87;;;2.07;;
7203;SDS011;3643;52.460;13.322;2023-04-25T13:44:15;5.80;;;1.60;;
7203;SDS011;3643;52.460;13.322;2023-04-25T13:46:43;3.30;;;1.70;;
7203;SDS011;3643;52.460;13.322;2023-04-25T13:49:13;5.80;;;2.33;;
7203;SDS011;3643;52.460;13.322;2023-04-25T13:51:42;3.13;;;1.80;;
7203;SDS011;3643;52.460;13.322;2023-04-25T13:54:10;5.33;;;1.73;;
7203;SDS011;3643;52.460;13.322;2023-04-25T13:56:40;3.90;;;1.70;;
7203;SDS011;3643;52.460;13.322;2023-04-25T13:59:09;5.80;;;2.03;;
7203;SDS011;3643;52.460;13.322;2023-04-25T14:01:37;5.87;;;1.97;;
7203;SDS011;3643;52.460;13.322;2023-04-25T14:04:06;5.23;;;2.27;;
7203;SDS011;3643;52.460;13.322;2023-04-25T14:06:35;4.60;;;1.73;;
7203;SDS011;3643;52.460;13.322;2023-04-25T14:09:04;5.03;;;1.87;;
7203;SDS011;3643;52.460;13.322;2023-04-25T14:11:33;6.80;;;2.07;;
7203;SDS011;3643;52.460;13.322;2023-04-25T14:14:03;5.53;;;1.80;;
7203;SDS011;3643;52.460;13.322;2023-04-25T14:16:31;6.27;;;1.90;;
7203;SDS011;3643;52.460;13.322;2023-04-25T14:19:00;5.10;;;1.80;;
7203;SDS011;3643;52.460;13.322;2023-04-25T14:21:29;7.23;;;2.10;;
7203;SDS011;3643;52.460;13.322;2023-04-25T14:23:59;4.37;;;1.80;;
7203;SDS011;3643;52.460;13.322;2023-04-25T14:26:27;6.27;;;2.00;;
7203;SDS011;3643;52.460;13.322;2023-04-25T14:28:56;5.90;;;1.70;;
7203;SDS011;3643;52.460;13.322;2023-04-25T14:31:26;5.63;;;1.83;;
7203;SDS011;3643;52.460;13.322;2023-04-25T14:33:54;4.80;;;1.67;;
7203;SDS011;3643;52.460;13.322;2023-04-25T14:36:25;7.13;;;1.97;;
7203;SDS011;3643;52.460;13.322;2023-04-25T14:38:53;5.60;;;2.30;;
7203;SDS011;3643;52.460;13.322;2023-04-25T14:41:22;5.33;;;1.97;;
7203;SDS011;3643;52.460;13.322;2023-04-25T14:43:51;2.80;;;1.60;;
7203;SDS011;3643;52.460;13.322;2023-04-25T14:46:20;5.60;;;1.60;;
7203;SDS011;3643;52.460;13.322;2023-04-25T14:48:51;5.77;;;1.90;;
7203;SDS011;3643;52.460;13.322;2023-04-25T14:51:22;5.50;;;1.70;;
7203;SDS011;3643;52.460;13.322;2023-04-25T14:53:51;4.07;;;1.90;;
7203;SDS011;3643;52.460;13.322;2023-04-25T14:56:20;7.07;;;2.00;;
7203;SDS011;3643;52.460;13.322;2023-04-25T14:58:48;3.97;;;1.70;;
7203;SDS011;3643;52.460;13.322;2023-04-25T15:01:17;5.43;;;1.80;;
7203;SDS011;3643;52.460;13.322;2023-04-25T15:03:47;7.03;;;2.10;;
7203;SDS011;3643;52.460;13.322;2023-04-25T15:06:18;4.37;;;1.93;;
7203;SDS011;3643;52.460;13.322;2023-04-25T15:08:46;6.00;;;1.97;;
7203;SDS011;3643;52.460;13.322;2023-04-25T15:11:15;4.50;;;1.77;;